Time;durP1;ratioP1;P1;durP2;ratioP2;P2;SDS_P1;SDS_P2;PMS_P1;PMS_P2;Temp;Humidity;BMP_temperature;BMP_pressure;BME280_temperature;BME280_humidity;BME280_pressure;Samples;Min_cycle;Max_cycle;Signal;HPM_P1;HPM_P2
2022/11/17 00:27:39;;;;;;;9.90;8.00;;;;;;;4.78;84.61;99843.84;4919365;28;20042;-77
2022/11/17 02:03:43;;;;;;;8.88;7.68;;;;;;;4.13;83.69;99785.22;4965945;28;20042;-75
2022/11/17 02:15:04;;;;;;;9.57;8.57;;;;;;;4.23;83.03;99799.50;4915402;29;20089;-76
2022/11/17 03:43:26;;;;;;;9.27;8.10;;;;;;;3.95;83.12;99740.00;4920421;28;20059;-76
2022/11/17 04:01:58;;;;;;;10.98;7.85;;;;;;;4.06;83.12;99730.81;4972378;28;20037;-76
2022/11/17 04:21:57;;;;;;;10.13;8.13;;;;;;;4.01;83.89;99726.72;4910543;28;20191;-77
2022/11/17 04:55:23;;;;;;;12.90;9.70;;;;;;;4.13;83.94;99696.66;4909102;28;20059;-76
2022/11/17 06:23:05;;;;;;;11.55;10.32;;;;;;;4.32;86.03;99672.25;4934911;28;20101;-79
2022/11/17 06:34:27;;;;;;;12.32;10.98;;;;;;;4.41;86.03;99663.13;4933916;28;20066;-77
2022/11/17 06:54:22;;;;;;;13.07;10.45;;;;;;;4.56;85.05;99638.94;4920344;28;20122;-77
2022/11/17 06:56:51;;;;;;;11.93;10.55;;;;;;;4.54;84.40;99638.16;4917759;28;20121;-77
2022/11/17 06:59:18;;;;;;;11.05;9.93;;;;;;;4.49;84.54;99639.31;4904680;28;20212;-77
2022/11/17 07:01:46;;;;;;;12.05;9.90;;;;;;;4.50;84.95;99630.56;4915544;28;20416;-77
2022/11/17 07:04:13;;;;;;;11.90;10.70;;;;;;;4.49;84.74;99634.94;4920247;28;20055;-77
2022/11/17 07:06:41;;;;;;;13.07;10.63;;;;;;;4.44;85.07;99629.13;4922341;29;20520;-79
2022/11/17 07:09:08;;;;;;;13.80;10.90;;;;;;;4.46;84.81;99629.91;4924317;28;20471;-77
2022/11/17 07:11:36;;;;;;;11.55;10.15;;;;;;;4.48;84.80;99622.84;4912026;29;20056;-80
2022/11/17 07:14:03;;;;;;;13.05;9.73;;;;;;;4.54;84.76;99622.50;4915756;29;20110;-78
2022/11/17 07:16:31;;;;;;;11.65;10.10;;;;;;;4.65;84.22;99621.16;4936058;29;20052;-78
2022/11/17 07:19:02;;;;;;;19.02;10.32;;;;;;;4.63;83.81;99610.78;4942086;28;20047;-77
2022/11/17 07:21:30;;;;;;;11.13;9.68;;;;;;;4.61;83.86;99612.63;4921639;29;20060;-77
2022/11/17 07:23:57;;;;;;;13.90;10.02;;;;;;;4.58;83.79;99613.63;4919756;28;20377;-77
2022/11/17 07:26:25;;;;;;;11.65;10.18;;;;;;;4.55;83.75;99608.59;4924292;28;20056;-77
2022/11/17 07:28:53;;;;;;;12.55;10.13;;;;;;;4.54;83.96;99613.84;4918690;28;20106;-78
2022/11/17 07:31:21;;;;;;;12.35;10.35;;;;;;;4.54;84.58;99619.91;4923389;29;20047;-78
2022/11/17 07:33:49;;;;;;;11.40;9.38;;;;;;;4.61;84.30;99622.22;4918646;29;20060;-80
2022/11/17 07:36:17;;;;;;;12.77;10.10;;;;;;;4.58;84.09;99620.59;4901720;29;20071;-76
2022/11/17 07:38:45;;;;;;;10.77;9.68;;;;;;;4.66;83.38;99630.66;4922284;29;20122;-79
2022/11/17 07:41:13;;;;;;;10.95;9.32;;;;;;;4.68;83.33;99626.19;4917517;28;20059;-78
2022/11/17 07:43:40;;;;;;;10.05;8.65;;;;;;;4.68;83.00;99624.41;4926378;28;20052;-77
2022/11/17 07:46:11;;;;;;;12.77;9.80;;;;;;;4.65;82.74;99622.00;4917275;29;20064;-78
2022/11/17 07:48:39;;;;;;;11.27;9.57;;;;;;;4.65;82.86;99627.22;4915349;28;20479;-78
2022/11/17 07:51:07;;;;;;;9.80;8.68;;;;;;;4.68;83.10;99626.19;4921410;28;20117;-78
2022/11/17 07:53:35;;;;;;;12.48;9.50;;;;;;;4.69;83.16;99618.31;4910499;28;20673;-78
2022/11/17 07:56:06;;;;;;;11.75;9.05;;;;;;;4.67;83.30;99630.56;4918024;29;20897;-77
2022/11/17 07:58:35;;;;;;;10.23;8.77;;;;;;;4.75;82.75;99635.41;4949532;28;20142;-77
2022/11/17 08:01:08;;;;;;;11.15;9.30;;;;;;;4.76;82.80;99630.09;4924699;29;20064;-77
2022/11/17 08:03:36;;;;;;;11.13;9.15;;;;;;;4.73;82.19;99629.44;4912878;28;20066;-79
2022/11/17 08:06:04;;;;;;;11.27;8.52;;;;;;;4.77;82.32;99621.38;4917133;28;20056;-77
2022/11/17 08:08:32;;;;;;;13.40;8.90;;;;;;;4.78;82.73;99625.66;4915105;28;20480;-80
2022/11/17 08:11:11;;;;;;;11.63;8.75;;;;;;;4.74;81.95;99626.75;4914281;28;20491;-80
2022/11/17 08:13:39;;;;;;;11.15;9.27;;;;;;;4.75;82.05;99620.59;4941121;28;20093;-79
2022/11/17 08:16:08;;;;;;;11.20;9.23;;;;;;;4.76;82.04;99621.44;4911889;29;20129;-78
2022/11/17 08:18:36;;;;;;;12.45;9.43;;;;;;;4.82;82.17;99610.72;4917460;28;20122;-78
2022/11/17 08:21:05;;;;;;;10.85;8.38;;;;;;;4.83;81.51;99622.81;4926808;29;20527;-78
2022/11/17 08:23:33;;;;;;;11.27;8.77;;;;;;;4.80;81.46;99615.97;4917948;29;20535;-77
2022/11/17 08:26:02;;;;;;;10.90;8.80;;;;;;;4.81;81.37;99617.66;4919750;28;20115;-78
2022/11/17 08:28:30;;;;;;;12.80;9.43;;;;;;;4.76;81.36;99621.44;4902409;28;20060;-78
2022/11/17 08:30:59;;;;;;;12.77;9.27;;;;;;;4.76;82.23;99609.25;4986911;28;20075;-78
2022/11/17 08:33:27;;;;;;;11.50;9.85;;;;;;;4.79;81.81;99613.47;4918052;28;20056;-78
2022/11/17 08:35:59;;;;;;;12.27;9.05;;;;;;;4.81;81.83;99599.41;4928088;28;20056;-76
2022/11/17 08:38:30;;;;;;;10.48;9.20;;;;;;;4.84;81.50;99608.84;4912073;28;20056;-78
2022/11/17 08:41:00;;;;;;;13.10;9.82;;;;;;;4.73;81.21;99601.59;4917044;29;20060;-77
2022/11/17 08:43:28;;;;;;;13.32;10.43;;;;;;;4.71;81.94;99605.19;5007596;28;20114;-77
2022/11/17 08:45:55;;;;;;;14.10;10.23;;;;;;;4.70;81.77;99600.91;4927187;28;20086;-77
2022/11/17 08:48:23;;;;;;;14.77;9.95;;;;;;;4.69;81.39;99600.06;4924543;28;20099;-76
2022/11/17 08:50:50;;;;;;;10.82;9.50;;;;;;;4.70;82.32;99598.28;4924163;28;20064;-77
2022/11/17 08:53:19;;;;;;;15.23;10.23;;;;;;;4.79;82.13;99597.81;4917223;29;20079;-78
2022/11/17 08:55:47;;;;;;;12.02;10.27;;;;;;;4.81;81.75;99591.59;4918396;28;20067;-76
2022/11/17 08:58:15;;;;;;;14.55;10.13;;;;;;;4.81;81.46;99596.81;4913181;28;20066;-77
2022/11/17 09:00:45;;;;;;;12.55;9.80;;;;;;;4.83;81.47;99599.34;4930770;28;20056;-76
2022/11/17 09:03:14;;;;;;;14.25;10.85;;;;;;;4.87;81.13;99590.44;4940549;29;20173;-77
2022/11/17 09:05:45;;;;;;;14.10;10.13;;;;;;;4.87;81.46;99587.00;4945696;28;20056;-77
2022/11/17 09:08:13;;;;;;;15.52;11.23;;;;;;;4.86;81.45;99593.97;4945686;28;20064;-77
2022/11/17 09:11:05;;;;;;;13.82;10.30;;;;;;;4.88;81.24;99601.72;4918471;29;20377;-77
2022/11/17 09:13:38;;;;;;;14.43;11.07;;;;;;;4.90;81.72;99600.69;4913701;29;20048;-77
2022/11/17 09:16:07;;;;;;;13.80;10.63;;;;;;;4.86;81.83;99595.72;5006602;28;20059;-76
2022/11/17 09:18:36;;;;;;;16.65;11.55;;;;;;;4.88;81.44;99599.94;4933465;28;20078;-76
2022/11/17 09:21:12;;;;;;;17.80;12.15;;;;;;;4.87;81.63;99619.13;4923570;28;20063;-76
2022/11/17 09:23:40;;;;;;;12.23;10.38;;;;;;;4.92;82.19;99624.97;4922205;29;20067;-77
2022/11/17 09:26:12;;;;;;;12.68;10.98;;;;;;;4.90;81.50;99618.97;4926646;28;20543;-77
2022/11/17 09:28:41;;;;;;;13.93;10.75;;;;;;;4.89;81.94;99616.44;4923855;28;20063;-76
2022/11/17 09:31:16;;;;;;;15.25;10.98;;;;;;;4.92;81.73;99619.75;4910704;28;20542;-78
2022/11/17 09:33:44;;;;;;;14.68;11.02;;;;;;;4.93;81.33;99610.16;4998632;28;20048;-77
2022/11/17 09:36:14;;;;;;;15.05;11.23;;;;;;;4.95;81.50;99624.78;4924505;28;20443;-77
2022/11/17 09:38:42;;;;;;;15.77;10.95;;;;;;;4.93;81.95;99618.81;4942834;28;20047;-78
2022/11/17 09:41:25;;;;;;;17.50;11.10;;;;;;;4.93;81.75;99613.59;4915276;29;20085;-76
2022/11/17 09:44:39;;;;;;;15.23;11.13;;;;;;;4.92;81.55;99604.09;4918146;29;20167;-76
2022/11/17 09:47:40;;;;;;;14.57;11.20;;;;;;;4.90;82.04;99610.28;4889123;29;20048;-77
2022/11/17 09:50:19;;;;;;;13.90;10.50;;;;;;;4.94;82.32;99611.81;4919276;28;20119;-77
2022/11/17 09:53:10;;;;;;;15.35;11.18;;;;;;;4.95;82.32;99609.13;4923696;29;20055;-77
2022/11/17 09:55:40;;;;;;;15.38;11.70;;;;;;;5.02;81.78;99600.06;4920467;28;20067;-77
2022/11/17 09:58:37;;;;;;;15.82;11.70;;;;;;;5.02;81.53;99601.84;4920043;28;20072;-76
2022/11/17 10:01:07;;;;;;;14.05;11.27;;;;;;;5.02;81.68;99609.66;4922828;28;20067;-77
2022/11/17 10:03:36;;;;;;;15.02;11.65;;;;;;;5.08;81.45;99610.16;4931757;28;20055;-77
2022/11/17 10:06:26;;;;;;;13.55;10.65;;;;;;;5.03;81.56;99604.34;4901791;29;20120;-77
2022/11/17 10:09:15;;;;;;;17.20;11.38;;;;;;;5.06;81.34;99599.00;4916112;29;20067;-76
2022/11/17 10:11:52;;;;;;;14.50;11.57;;;;;;;5.05;81.04;99601.69;4916646;28;20047;-77
2022/11/17 10:14:20;;;;;;;13.88;11.70;;;;;;;5.02;81.60;99602.69;4918079;29;20048;-77
2022/11/17 10:16:53;;;;;;;17.52;10.98;;;;;;;5.07;81.27;99611.09;4913979;28;20063;-77
2022/11/17 10:19:23;;;;;;;15.88;11.57;;;;;;;5.11;81.34;99608.34;4917092;28;20062;-76
2022/11/17 10:21:55;;;;;;;26.20;13.00;;;;;;;5.12;81.24;99605.63;4921079;28;20048;-77
2022/11/17 10:24:49;;;;;;;13.77;10.63;;;;;;;5.12;81.01;99594.38;4906226;29;20048;-80
2022/11/17 10:27:29;;;;;;;15.90;11.55;;;;;;;5.10;81.45;99591.84;4915203;28;20154;-76
2022/11/17 10:30:00;;;;;;;15.57;11.68;;;;;;;5.09;80.70;99590.19;4907422;29;20520;-78
2022/11/17 10:32:30;;;;;;;12.30;10.38;;;;;;;5.15;81.20;99594.22;4922743;29;20056;-78
2022/11/17 10:35:18;;;;;;;14.00;10.77;;;;;;;5.14;81.21;99587.31;4921203;29;20075;-77
2022/11/17 10:38:12;;;;;;;14.10;10.98;;;;;;;5.13;80.64;99583.00;4912600;29;20451;-77
2022/11/17 10:40:39;;;;;;;13.07;10.65;;;;;;;5.08;80.75;99578.03;4917726;29;20157;-78
2022/11/17 10:43:12;;;;;;;16.15;11.63;;;;;;;5.08;81.21;99578.03;4925864;28;20056;-78
2022/11/17 10:45:47;;;;;;;14.50;11.45;;;;;;;5.06;81.27;99577.28;4912396;29;20456;-77
2022/11/17 10:48:35;;;;;;;13.03;11.17;;;;;;;5.10;81.54;99575.34;4911097;28;20144;-77
2022/11/17 10:51:24;;;;;;;15.88;11.02;;;;;;;5.16;81.09;99572.41;4925102;28;20534;-77
2022/11/17 10:54:16;;;;;;;13.98;11.02;;;;;;;5.15;80.67;99576.78;4911366;28;20852;-78
2022/11/17 10:56:50;;;;;;;17.10;11.23;;;;;;;5.15;80.68;99568.97;4920309;29;20052;-77
2022/11/17 10:59:27;;;;;;;13.63;10.65;;;;;;;5.15;80.96;99568.13;4917989;29;20043;-78
2022/11/17 11:01:55;;;;;;;14.40;10.63;;;;;;;5.15;80.99;99570.72;4938239;29;20059;-78
2022/11/17 11:04:35;;;;;;;15.23;11.32;;;;;;;5.17;80.75;99563.66;4918311;28;20048;-79
2022/11/17 11:07:11;;;;;;;13.77;10.23;;;;;;;5.16;81.10;99555.00;4914715;28;20060;-77
2022/11/17 11:10:02;;;;;;;14.13;10.55;;;;;;;5.12;80.76;99553.47;4952217;28;20066;-77
2022/11/17 11:12:48;;;;;;;11.93;9.68;;;;;;;5.12;80.77;99537.81;4923027;28;20676;-77
2022/11/17 11:15:19;;;;;;;12.73;9.73;;;;;;;5.13;80.64;99533.44;4937100;28;20527;-78
2022/11/17 11:17:47;;;;;;;15.73;10.77;;;;;;;5.13;80.94;99531.66;4916491;29;20048;-77
2022/11/17 11:20:16;;;;;;;13.05;10.45;;;;;;;5.18;81.01;99531.41;4918752;28;20063;-78
2022/11/17 11:23:08;;;;;;;14.43;9.63;;;;;;;5.14;80.83;99524.72;4914817;28;20154;-78
2022/11/17 11:25:40;;;;;;;13.80;9.55;;;;;;;5.11;80.65;99525.69;4921840;28;20052;-77
2022/11/17 11:28:27;;;;;;;14.10;10.68;;;;;;;5.12;81.00;99529.16;4939382;28;20056;-78
2022/11/17 11:31:03;;;;;;;13.05;9.45;;;;;;;5.17;81.25;99529.75;4921141;28;20048;-76
2022/11/17 11:33:36;;;;;;;14.27;10.10;;;;;;;5.18;80.28;99521.84;4921176;28;20287;-77
2022/11/17 11:36:20;;;;;;;12.05;10.10;;;;;;;5.22;80.39;99523.38;4908449;28;20585;-78
2022/11/17 11:39:05;;;;;;;14.10;9.55;;;;;;;5.18;80.17;99520.97;4920739;28;20125;-78
2022/11/17 11:42:00;;;;;;;15.55;9.68;;;;;;;5.19;80.59;99514.88;4914709;28;20101;-77
2022/11/17 11:45:14;;;;;;;13.40;9.90;;;;;;;5.16;81.05;99507.19;4935071;28;20063;-77
2022/11/17 11:48:05;;;;;;;13.13;9.93;;;;;;;5.17;80.63;99509.72;4920717;28;20051;-77
2022/11/17 11:50:42;;;;;;;14.65;9.65;;;;;;;5.17;80.33;99511.47;4918816;29;20884;-77
2022/11/17 11:53:55;;;;;;;11.57;8.82;;;;;;;5.21;80.57;99513.00;4925217;29;20059;-77
2022/11/17 11:56:29;;;;;;;11.27;9.02;;;;;;;5.25;80.55;99514.50;4911650;28;20748;-78
2022/11/17 11:59:06;;;;;;;12.98;9.20;;;;;;;5.30;80.26;99500.28;4920859;28;20060;-76
2022/11/17 12:01:44;;;;;;;12.57;8.82;;;;;;;5.26;79.95;99506.59;4924432;28;20500;-76
2022/11/17 12:04:37;;;;;;;13.20;10.25;;;;;;;5.26;79.76;99514.41;4938629;28;20055;-77
2022/11/17 12:07:15;;;;;;;13.60;9.77;;;;;;;5.30;80.02;99509.88;4928297;29;20075;-77
2022/11/17 12:10:10;;;;;;;12.77;9.75;;;;;;;5.30;79.99;99502.88;4919090;28;20782;-79
2022/11/17 12:12:38;;;;;;;12.95;9.18;;;;;;;5.33;80.57;99492.28;4921379;28;20063;-78
2022/11/17 12:15:18;;;;;;;16.27;8.70;;;;;;;5.42;81.17;99485.72;4975814;28;20428;-76
2022/11/17 12:17:51;;;;;;;14.63;10.15;;;;;;;5.47;80.77;99493.28;4924009;28;20062;-76
2022/11/17 12:20:37;;;;;;;12.43;9.50;;;;;;;5.50;80.64;99503.56;4931923;28;20060;-76
2022/11/17 12:23:26;;;;;;;12.63;10.13;;;;;;;5.50;80.45;99498.34;4922484;28;20068;-76
2022/11/17 12:25:58;;;;;;;13.07;9.82;;;;;;;5.53;80.37;99501.59;4918934;29;20040;-75
2022/11/17 12:28:29;;;;;;;14.82;9.98;;;;;;;5.54;79.85;99515.53;4937077;28;20150;-79
2022/11/17 14:01:32;;;;;;;12.23;9.70;;;;;;;5.50;78.63;99482.69;4918108;29;20215;-78
2022/11/17 14:04:12;;;;;;;12.25;9.60;;;;;;;5.46;78.32;99483.78;4919655;28;20048;-78
2022/11/17 14:06:55;;;;;;;13.63;9.13;;;;;;;5.39;78.30;99485.03;4925242;28;20058;-78
2022/11/17 14:09:29;;;;;;;13.77;9.52;;;;;;;5.45;79.33;99487.31;4944398;28;20047;-78
2022/11/17 14:11:57;;;;;;;11.50;8.85;;;;;;;5.51;78.66;99476.53;4933916;28;20059;-76
2022/11/17 14:14:45;;;;;;;11.45;9.27;;;;;;;5.50;78.55;99470.47;4930464;28;20090;-78
2022/11/17 14:17:20;;;;;;;17.02;10.27;;;;;;;5.45;78.27;99463.81;4931365;28;20679;-77
2022/11/17 14:19:48;;;;;;;13.85;10.50;;;;;;;5.43;78.47;99471.75;4952005;28;20053;-76
2022/11/17 14:22:15;;;;;;;12.95;9.18;;;;;;;5.46;78.07;99466.34;4918465;28;20548;-77
2022/11/17 14:24:52;;;;;;;11.85;9.30;;;;;;;5.42;78.83;99480.50;4930307;28;20751;-76
2022/11/17 14:27:28;;;;;;;10.73;9.15;;;;;;;5.43;78.44;99474.34;4917987;28;20067;-77
2022/11/17 14:29:56;;;;;;;13.65;9.60;;;;;;;5.37;77.92;99468.66;4927901;28;20583;-76
2022/11/17 14:32:23;;;;;;;12.75;9.50;;;;;;;5.25;77.95;99473.59;4937048;28;20062;-77
2022/11/17 14:34:51;;;;;;;11.80;10.18;;;;;;;5.20;78.28;99473.03;4940623;28;20052;-78
2022/11/17 14:37:19;;;;;;;11.73;9.75;;;;;;;5.08;78.07;99473.69;4939173;28;20060;-78
2022/11/17 14:39:47;;;;;;;14.57;9.65;;;;;;;5.13;79.00;99478.66;4950410;28;20052;-75
2022/11/17 14:42:14;;;;;;;12.30;9.77;;;;;;;5.18;78.51;99472.28;4924031;28;20106;-76
2022/11/17 14:44:43;;;;;;;12.10;9.93;;;;;;;5.19;78.67;99476.56;4918953;28;20685;-76
2022/11/17 14:47:10;;;;;;;13.05;10.10;;;;;;;5.18;78.74;99479.22;4930943;28;20059;-77
2022/11/17 14:49:38;;;;;;;14.93;10.40;;;;;;;5.17;78.55;99478.41;4923630;28;20410;-76
2022/11/17 14:52:05;;;;;;;11.70;9.65;;;;;;;5.17;78.81;99477.56;4923764;28;20080;-78
2022/11/17 14:54:33;;;;;;;13.57;11.20;;;;;;;5.15;78.24;99475.03;4934805;28;20403;-76
2022/11/17 14:57:02;;;;;;;13.27;10.60;;;;;;;5.13;78.77;99481.25;4933108;28;20097;-77
2022/11/17 14:59:29;;;;;;;12.38;10.27;;;;;;;5.09;78.78;99475.41;4950111;28;20061;-75
2022/11/17 15:01:57;;;;;;;13.93;10.68;;;;;;;5.16;78.84;99471.50;4985628;28;20062;-77
2022/11/17 15:04:25;;;;;;;14.65;10.57;;;;;;;5.15;78.34;99475.03;4942147;28;20052;-77
2022/11/17 15:07:12;;;;;;;12.50;10.25;;;;;;;5.11;78.66;99477.91;4928522;28;20088;-78
2022/11/17 15:09:40;;;;;;;11.35;9.85;;;;;;;5.15;78.34;99474.22;4919269;28;20638;-76
2022/11/17 15:12:09;;;;;;;12.70;10.35;;;;;;;5.16;78.26;99468.06;4923798;28;20055;-77
2022/11/17 15:14:36;;;;;;;12.30;10.55;;;;;;;5.14;78.34;99475.16;4933190;28;20061;-77
2022/11/17 15:17:04;;;;;;;15.82;11.23;;;;;;;5.11;78.44;99470.09;4949264;28;20125;-77
2022/11/17 15:19:39;;;;;;;13.73;11.48;;;;;;;5.15;78.98;99469.81;4935804;28;20060;-77
2022/11/17 15:22:07;;;;;;;13.63;10.68;;;;;;;5.18;78.84;99467.06;4933622;28;20074;-76
2022/11/17 15:24:34;;;;;;;14.13;11.50;;;;;;;5.07;78.27;99466.78;4923920;28;20055;-77
2022/11/17 15:27:02;;;;;;;16.13;12.20;;;;;;;5.03;79.17;99466.13;4924104;28;20062;-78
2022/11/17 15:29:32;;;;;;;15.40;12.18;;;;;;;5.01;78.76;99467.97;4925930;28;20059;-77
2022/11/17 15:31:59;;;;;;;14.40;12.05;;;;;;;4.99;78.75;99466.38;4927684;28;20538;-77
2022/11/17 15:34:27;;;;;;;16.48;12.32;;;;;;;5.05;79.39;99468.66;4952501;28;20111;-77
2022/11/17 15:36:54;;;;;;;16.02;13.20;;;;;;;5.01;78.53;99467.97;4933419;28;20047;-77
2022/11/17 15:39:22;;;;;;;15.95;12.50;;;;;;;4.92;79.22;99455.44;4929730;28;20736;-77
2022/11/17 15:41:50;;;;;;;14.90;12.27;;;;;;;4.95;79.02;99467.44;4933207;28;20083;-78
2022/11/17 15:44:18;;;;;;;13.57;11.43;;;;;;;4.92;79.46;99470.25;5002481;28;20109;-77
2022/11/17 15:46:47;;;;;;;15.15;11.55;;;;;;;4.97;79.03;99471.69;4919487;28;20064;-79
2022/11/17 15:49:15;;;;;;;15.18;12.20;;;;;;;4.97;78.68;99466.47;4945007;28;20049;-78
2022/11/17 15:51:43;;;;;;;15.00;11.98;;;;;;;4.95;78.93;99462.25;4946508;28;20123;-78
2022/11/17 15:54:11;;;;;;;21.17;12.80;;;;;;;4.89;78.97;99467.78;4954048;28;20064;-78
2022/11/17 15:56:46;;;;;;;15.13;12.50;;;;;;;4.79;78.96;99470.91;4925945;28;20040;-77
2022/11/17 15:59:14;;;;;;;18.95;13.15;;;;;;;4.80;79.79;99474.34;4950556;28;20111;-78
2022/11/17 16:01:43;;;;;;;14.32;12.20;;;;;;;4.80;79.48;99474.34;4930463;28;20155;-77
2022/11/17 16:04:13;;;;;;;17.73;13.10;;;;;;;4.79;80.22;99470.91;4952172;28;20438;-78
2022/11/17 16:06:43;;;;;;;18.77;13.15;;;;;;;4.82;79.77;99464.69;4925049;28;20043;-80
2022/11/17 16:09:11;;;;;;;15.90;12.35;;;;;;;4.81;79.36;99461.22;4934084;28;20991;-76
2022/11/17 16:11:40;;;;;;;16.25;13.10;;;;;;;4.85;79.31;99472.31;4934678;28;20071;-77
2022/11/17 16:14:08;;;;;;;15.27;12.88;;;;;;;4.76;79.94;99468.44;4936555;28;20167;-76
2022/11/17 16:16:37;;;;;;;15.23;12.60;;;;;;;4.68;80.54;99467.16;4923578;28;20605;-77
2022/11/17 16:19:05;;;;;;;15.00;12.13;;;;;;;4.74;80.79;99464.25;4921156;28;20048;-76
2022/11/17 16:21:33;;;;;;;15.68;12.73;;;;;;;4.81;80.75;99470.81;4928804;28;20047;-76
2022/11/17 16:24:00;;;;;;;18.48;13.05;;;;;;;4.72;81.39;99466.91;4926961;28;20067;-76
2022/11/17 16:26:30;;;;;;;15.70;12.77;;;;;;;4.78;81.10;99476.22;4966044;28;20050;-76
2022/11/17 16:29:00;;;;;;;18.45;12.98;;;;;;;4.74;81.26;99467.69;4938431;28;20728;-77
2022/11/17 16:31:31;;;;;;;14.75;12.63;;;;;;;4.71;81.77;99472.22;5005729;28;20732;-75
2022/11/17 16:34:11;;;;;;;16.35;12.32;;;;;;;4.76;81.96;99462.41;4934047;28;20101;-78
2022/11/17 16:36:40;;;;;;;17.30;13.77;;;;;;;4.73;82.30;99447.78;4904810;28;20504;-77
2022/11/17 16:39:10;;;;;;;22.00;13.88;;;;;;;4.62;83.05;99455.31;4921014;28;20064;-77
2022/11/17 16:41:40;;;;;;;18.80;13.73;;;;;;;4.61;83.57;99455.41;4927103;28;20052;-77
2022/11/17 16:44:13;;;;;;;18.60;14.38;;;;;;;4.66;83.33;99454.22;4909667;28;20101;-77
2022/11/17 16:46:50;;;;;;;17.10;13.20;;;;;;;4.66;83.07;99449.00;4921417;28;20055;-77
2022/11/17 16:49:42;;;;;;;18.60;14.18;;;;;;;4.70;83.01;99457.53;4921780;28;20064;-78
2022/11/17 16:52:16;;;;;;;14.77;12.23;;;;;;;4.63;83.59;99450.94;4926711;28;20139;-77
2022/11/17 17:03:56;;;;;;;18.73;14.48;;;;;;;4.38;85.22;99462.66;4935598;28;20053;-77
2022/11/17 17:06:30;;;;;;;18.17;14.00;;;;;;;4.42;85.33;99455.53;4949450;28;20550;-76
2022/11/17 17:09:01;;;;;;;17.95;14.15;;;;;;;4.44;85.52;99458.88;4924407;28;20067;-77
2022/11/17 17:11:30;;;;;;;16.40;13.23;;;;;;;4.45;84.79;99456.19;4920496;28;20095;-78
2022/11/17 17:14:01;;;;;;;17.17;13.65;;;;;;;4.49;85.31;99460.31;4936478;28;20064;-76
2022/11/17 17:16:31;;;;;;;17.02;13.15;;;;;;;4.51;84.39;99466.31;4921109;28;20127;-76
2022/11/17 17:19:02;;;;;;;18.35;14.00;;;;;;;4.50;84.90;99464.63;4916120;28;20052;-78
2022/11/17 17:21:33;;;;;;;18.40;13.98;;;;;;;4.50;84.98;99467.25;4916023;29;20091;-76
2022/11/17 17:24:01;;;;;;;17.77;13.90;;;;;;;4.47;85.16;99467.41;4920117;28;20063;-77
2022/11/17 17:26:30;;;;;;;18.70;14.43;;;;;;;4.49;85.29;99473.34;4920747;28;20441;-77
2022/11/17 17:28:59;;;;;;;16.58;13.27;;;;;;;4.48;84.91;99469.06;4925276;28;20052;-77
2022/11/17 17:31:32;;;;;;;16.85;13.63;;;;;;;4.45;85.11;99479.66;4932549;28;20060;-75
2022/11/17 17:34:00;;;;;;;17.10;14.65;;;;;;;4.48;85.83;99473.44;4940788;28;20539;-76
2022/11/17 17:36:28;;;;;;;18.88;14.30;;;;;;;4.49;86.08;99464.69;4954427;28;20075;-76
2022/11/17 17:38:58;;;;;;;18.23;14.40;;;;;;;4.49;85.55;99467.31;4921140;28;20126;-77
2022/11/17 18:11:31;;;;;;;28.77;19.20;;;;;;;4.51;86.19;99479.34;4920218;28;20059;-77
2022/11/17 18:13:59;;;;;;;23.00;17.75;;;;;;;4.49;85.13;99472.50;4912955;28;20365;-76
2022/11/17 18:16:29;;;;;;;21.77;17.80;;;;;;;4.46;85.49;99475.31;4969382;28;20060;-76
2022/11/17 18:19:02;;;;;;;22.92;18.30;;;;;;;4.40;85.71;99476.44;4920676;28;20063;-77
2022/11/17 18:21:31;;;;;;;25.48;19.67;;;;;;;4.45;85.19;99484.84;4913477;28;20059;-77
2022/11/17 18:24:00;;;;;;;23.48;18.42;;;;;;;4.47;85.43;99474.38;4918626;28;20052;-74
2022/11/17 20:00:39;;;;;;;23.67;19.08;;;;;;;3.49;87.53;99510.50;4918484;28;20459;-78
